KPMH/PMH METAR and TAF weather

Enter ICAO airport designator
Station Type Date Time Source
KPMH METAR 2021/09/16 10:35 UTC NOAA

KPMH 161035Z AUTO 00000KT 4SM BR OVC002 20/18 A3010 RMK AO2 T01980180


Station Type Date Time Source
KPMH Decoded METAR 2021/09/16 10:35 UTC NOAA

Station name not available
Sep 16, 2021 - 06:35 AM EDT / 2021.09.16 1035 UTC
Wind: Calm:0
Visibility: 4 mile(s):0
Sky conditions: overcast
Weather: mist
Temperature: 67.6 F (19.8 C)
Dew Point: 64.4 F (18.0 C)
Relative Humidity: 89%
Pressure (altimeter): 30.1 in. Hg (1019 hPa)
ob: KPMH 161035Z AUTO 00000KT 4SM BR OVC002 20/18 A3010 RMK AO2 T01980180
cycle: 10

Station Type Date Time Source
KPMH TAF UTC NOAA

Error!

Example: see airport list